createdAt,value
2019-06-15T00:01:58.712Z,65.91
2019-06-15T00:04:32.458Z,66.05
2019-06-15T00:07:07.353Z,66.21
2019-06-15T00:09:38.562Z,66.23
2019-06-15T00:12:11.533Z,66.34
2019-06-15T00:14:44.424Z,66.93
2019-06-15T00:17:20.159Z,67.60
2019-06-15T00:19:51.620Z,68.31
2019-06-15T00:22:25.275Z,68.77
2019-06-15T00:25:00.397Z,68.33
2019-06-15T00:27:36.157Z,67.79
2019-06-15T00:30:10.499Z,66.52
2019-06-15T00:32:56.403Z,69.24
2019-06-15T00:35:39.386Z,70.59
2019-06-15T00:38:10.775Z,71.53
2019-06-15T00:40:44.689Z,70.85
2019-06-15T00:43:18.614Z,69.73
2019-06-15T00:45:51.583Z,68.22
2019-06-15T00:48:34.876Z,67.54
2019-06-15T00:51:06.812Z,66.62
2019-06-15T00:53:38.888Z,66.86
2019-06-15T00:56:12.749Z,66.01
2019-06-15T00:58:58.702Z,64.76
2019-06-15T01:01:35.460Z,63.45
2019-06-15T01:04:08.672Z,61.91
2019-06-15T01:06:40.676Z,61.34
2019-06-15T01:09:13.770Z,61.60
2019-06-15T01:11:48.203Z,61.66
2019-06-15T01:14:23.709Z,62.81
2019-06-15T01:16:57.731Z,63.68
2019-06-15T01:19:29.924Z,63.40
2019-06-15T01:22:03.125Z,62.84
2019-06-15T01:24:35.120Z,62.94
2019-06-15T01:27:07.129Z,62.58
2019-06-15T01:29:40.953Z,62.77
2019-06-15T01:32:14.768Z,62.60
2019-06-15T01:34:49.244Z,63.01
2019-06-15T01:37:22.998Z,65.56
2019-06-15T01:39:55.048Z,66.53
2019-06-15T01:42:28.974Z,66.89
2019-06-15T01:45:02.878Z,65.55
2019-06-15T01:47:36.540Z,64.30
2019-06-15T01:50:10.394Z,63.10
2019-06-15T01:52:41.886Z,62.40
2019-06-15T01:55:28.479Z,61.81
2019-06-15T01:58:01.945Z,61.22
2019-06-15T02:00:36.499Z,62.22
2019-06-15T02:03:07.939Z,62.37
2019-06-15T02:05:41.210Z,61.95
2019-06-15T02:08:14.994Z,62.00
2019-06-15T02:10:47.205Z,62.52
2019-06-15T02:13:19.249Z,62.53
2019-06-15T02:15:52.242Z,62.45
2019-06-15T02:18:25.281Z,62.51
2019-06-15T02:20:58.100Z,62.91
2019-06-15T02:23:31.201Z,62.73
2019-06-15T02:26:03.319Z,62.83
2019-06-15T02:28:36.447Z,63.21
2019-06-15T02:31:10.175Z,63.24
2019-06-15T02:33:42.241Z,64.05
2019-06-15T02:36:14.422Z,64.18
2019-06-15T02:38:48.196Z,64.00
2019-06-15T02:41:23.984Z,63.70
2019-06-15T02:43:56.648Z,63.44
2019-06-15T02:46:28.406Z,61.97
2019-06-15T02:49:00.471Z,61.12
2019-06-15T02:51:33.780Z,60.99
2019-06-15T02:54:07.216Z,60.75
2019-06-15T02:56:40.402Z,60.76
2019-06-15T02:59:13.324Z,61.30
2019-06-15T03:01:46.299Z,62.00
2019-06-15T03:04:19.383Z,61.53
2019-06-15T03:06:53.583Z,61.77
2019-06-15T03:09:26.344Z,60.75
2019-06-15T03:12:01.043Z,58.95
2019-06-15T03:14:32.510Z,57.53
2019-06-15T03:17:04.550Z,57.33
2019-06-15T03:19:37.558Z,56.63
2019-06-15T03:22:09.628Z,56.28
2019-06-15T03:24:42.595Z,55.89
2019-06-15T03:27:15.258Z,55.74
2019-06-15T03:29:49.260Z,55.94
2019-06-15T03:32:23.549Z,55.54
2019-06-15T03:34:56.433Z,55.23
2019-06-15T03:37:29.664Z,55.36
2019-06-15T03:40:03.701Z,56.03
2019-06-15T03:42:37.542Z,56.56
2019-06-15T03:45:11.751Z,56.33
2019-06-15T03:47:52.861Z,55.54
2019-06-15T03:50:34.451Z,54.63
2019-06-15T03:53:08.582Z,54.94
2019-06-15T03:55:41.554Z,54.83
2019-06-15T03:58:14.782Z,54.98
2019-06-15T04:00:54.376Z,54.19
2019-06-15T04:03:28.607Z,54.13
2019-06-15T04:06:00.837Z,54.44
2019-06-15T04:08:33.830Z,54.01
2019-06-15T04:11:06.783Z,54.10
2019-06-15T04:13:38.608Z,56.42
2019-06-15T04:16:10.940Z,56.66
2019-06-15T04:18:44.993Z,56.73
2019-06-15T04:21:17.808Z,55.65
2019-06-15T04:23:50.796Z,56.02
2019-06-15T04:26:35.302Z,57.29
2019-06-15T04:28:57.996Z,56.03
2019-06-15T04:31:31.030Z,54.87
2019-06-15T04:34:03.893Z,54.61
2019-06-15T04:36:39.517Z,53.47
2019-06-15T04:39:13.053Z,52.83
2019-06-15T04:41:46.688Z,52.86
2019-06-15T04:44:17.902Z,53.08
2019-06-15T04:46:49.873Z,53.46
2019-06-15T04:49:25.561Z,55.84
2019-06-15T04:51:58.914Z,55.84
2019-06-15T04:54:30.970Z,56.07
2019-06-15T04:57:03.986Z,55.95
2019-06-15T04:59:36.032Z,55.09
2019-06-15T05:02:08.081Z,55.46
2019-06-15T05:04:41.099Z,55.41
2019-06-15T05:07:14.752Z,54.14
2019-06-15T05:09:46.158Z,53.45
2019-06-15T05:12:20.135Z,54.09
2019-06-15T05:14:52.104Z,53.83
2019-06-15T05:17:25.096Z,52.94
2019-06-15T05:19:57.164Z,54.64
2019-06-15T05:22:29.021Z,56.17
2019-06-15T05:25:05.262Z,57.13
2019-06-15T05:27:36.988Z,58.65
2019-06-15T05:30:49.888Z,57.81
2019-06-15T05:33:21.259Z,58.14
2019-06-15T05:35:55.965Z,57.17
2019-06-15T05:38:27.400Z,57.37
2019-06-15T05:41:19.579Z,56.57
2019-06-15T05:43:53.215Z,56.13
2019-06-15T05:46:25.369Z,55.24
2019-06-15T05:48:58.462Z,54.77
2019-06-15T05:51:31.222Z,53.49
2019-06-15T05:54:05.914Z,53.22
2019-06-15T05:56:37.340Z,52.41
2019-06-15T05:59:11.770Z,53.03
2019-06-15T06:01:45.464Z,52.32
2019-06-15T06:04:19.174Z,52.05
2019-06-15T06:06:52.412Z,52.52
2019-06-15T06:09:25.201Z,53.52
2019-06-15T06:11:57.400Z,53.01
2019-06-15T06:14:30.390Z,53.12
2019-06-15T06:17:03.406Z,53.79
2019-06-15T06:19:36.381Z,52.84
2019-06-15T06:22:09.365Z,53.13
2019-06-15T06:24:42.349Z,53.34
2019-06-15T06:27:14.418Z,53.71
2019-06-15T06:29:50.158Z,53.59
2019-06-15T06:32:22.371Z,53.55
2019-06-15T06:34:55.512Z,52.90
2019-06-15T06:37:29.551Z,52.29
2019-06-15T06:40:07.519Z,52.01
2019-06-15T06:42:39.468Z,53.06
2019-06-15T06:45:15.254Z,52.75
2019-06-15T06:48:03.171Z,53.14
2019-06-15T06:50:41.647Z,54.02
2019-06-15T06:53:12.887Z,53.13
2019-06-15T06:55:54.213Z,52.56
2019-06-15T06:58:25.617Z,52.13
2019-06-15T07:00:57.675Z,50.24
2019-06-15T07:03:30.651Z,48.75
2019-06-15T07:06:04.586Z,48.35
2019-06-15T07:08:37.583Z,47.40
2019-06-15T07:11:13.315Z,47.44
2019-06-15T07:13:47.642Z,46.68
2019-06-15T07:16:21.765Z,46.38
2019-06-15T07:18:54.739Z,45.15
2019-06-15T07:21:26.802Z,46.10
2019-06-15T07:23:59.791Z,46.87
2019-06-15T07:26:33.242Z,47.99
2019-06-15T07:29:05.133Z,47.32
2019-06-15T07:31:38.765Z,46.87
2019-06-15T07:34:11.790Z,47.52
2019-06-15T07:36:44.764Z,47.16
2019-06-15T07:39:17.998Z,46.78
2019-06-15T07:41:50.990Z,47.20
2019-06-15T07:44:23.961Z,46.59
2019-06-15T07:46:57.936Z,46.37
2019-06-15T07:49:29.948Z,45.89
2019-06-15T07:52:02.032Z,45.54
2019-06-15T07:54:36.240Z,45.57
2019-06-15T07:57:11.785Z,45.84
2019-06-15T07:59:46.968Z,44.90
2019-06-15T08:02:20.133Z,45.50
2019-06-15T08:04:53.147Z,44.51
2019-06-15T08:07:26.366Z,44.00
2019-06-15T08:09:58.170Z,44.26
2019-06-15T08:12:30.997Z,45.70
2019-06-15T08:15:05.703Z,47.06
2019-06-15T08:17:37.519Z,46.09
2019-06-15T08:20:10.104Z,45.37
2019-06-15T08:22:52.044Z,45.63
2019-06-15T08:25:34.779Z,45.11
2019-06-15T08:28:08.118Z,45.58
2019-06-15T08:30:42.515Z,45.09
2019-06-15T08:33:14.090Z,44.00
2019-06-15T08:35:46.277Z,44.19
2019-06-15T08:38:26.060Z,44.66
2019-06-15T08:41:05.971Z,44.46
2019-06-15T08:43:38.145Z,43.22
2019-06-15T08:46:11.376Z,42.96
2019-06-15T08:48:45.200Z,42.97
2019-06-15T08:51:17.302Z,42.46
2019-06-15T08:53:51.187Z,42.67
2019-06-15T08:56:26.915Z,42.15
2019-06-15T08:58:59.311Z,41.93
2019-06-15T09:01:33.239Z,42.20
2019-06-15T09:04:07.331Z,42.41
2019-06-15T09:06:41.091Z,41.53
2019-06-15T09:09:15.999Z,42.57
2019-06-15T09:11:48.271Z,43.39
2019-06-15T09:14:20.330Z,42.26
2019-06-15T09:16:54.475Z,42.11
2019-06-15T09:19:27.550Z,41.57
2019-06-15T09:22:03.190Z,40.90
2019-06-15T09:24:38.174Z,40.73
2019-06-15T09:27:11.287Z,40.55
2019-06-15T09:29:42.617Z,40.54
2019-06-15T09:32:15.524Z,40.94
2019-06-15T09:34:49.590Z,39.94
2019-06-15T09:37:25.236Z,40.46
2019-06-15T09:39:59.258Z,41.12
2019-06-15T09:42:31.652Z,40.25
2019-06-15T09:45:08.025Z,39.12
2019-06-15T09:47:40.473Z,39.55
2019-06-15T09:50:13.570Z,40.06
2019-06-15T09:53:01.128Z,39.05
2019-06-15T09:55:50.358Z,38.04
2019-06-15T09:58:24.531Z,38.78
2019-06-15T10:00:58.490Z,38.31
2019-06-15T10:03:31.009Z,38.18
2019-06-15T10:06:03.719Z,36.94
2019-06-15T10:08:37.721Z,37.04
2019-06-15T10:11:12.493Z,35.61
2019-06-15T10:13:44.790Z,37.01
2019-06-15T10:16:18.918Z,36.89
2019-06-15T10:18:51.782Z,36.74
2019-06-15T10:21:24.595Z,35.77
2019-06-15T10:23:58.016Z,36.32
2019-06-15T10:26:31.844Z,35.48
2019-06-15T10:29:05.193Z,33.73
2019-06-15T10:31:40.705Z,35.36
2019-06-15T10:34:14.032Z,35.14
2019-06-15T10:36:46.950Z,34.52
2019-06-15T10:39:19.547Z,34.71
2019-06-15T10:41:53.607Z,34.92
2019-06-15T10:44:27.457Z,34.67
2019-06-15T10:46:59.718Z,32.84
2019-06-15T10:49:32.920Z,33.12
2019-06-15T10:52:07.032Z,33.21
2019-06-15T10:54:42.824Z,33.54
2019-06-15T10:57:16.930Z,34.66
2019-06-15T10:59:57.492Z,33.86
2019-06-15T11:02:25.180Z,33.24
2019-06-15T11:04:57.970Z,33.51
2019-06-15T11:07:31.843Z,33.11
2019-06-15T11:10:08.625Z,33.57
2019-06-15T11:12:46.275Z,33.34
2019-06-15T11:15:28.922Z,34.41
2019-06-15T11:18:01.760Z,34.79
2019-06-15T11:20:48.819Z,34.81
2019-06-15T11:23:20.972Z,35.50
2019-06-15T11:25:53.095Z,35.54
2019-06-15T11:28:25.008Z,35.23
2019-06-15T11:30:58.717Z,35.46
2019-06-15T11:33:31.086Z,35.41
2019-06-15T11:36:05.426Z,36.11
2019-06-15T11:38:40.809Z,35.56
2019-06-15T11:41:15.388Z,36.02
2019-06-15T11:43:48.265Z,35.18
2019-06-15T11:46:22.133Z,35.17
2019-06-15T11:48:55.647Z,34.89
2019-06-15T11:51:29.127Z,33.81
2019-06-15T11:54:03.452Z,33.42
2019-06-15T11:56:36.197Z,33.53
2019-06-15T11:59:10.152Z,33.42
2019-06-15T12:01:45.068Z,33.18
2019-06-15T12:04:17.850Z,34.11
2019-06-15T12:06:51.050Z,33.60
2019-06-15T12:09:22.259Z,33.20
2019-06-15T12:11:56.042Z,33.90
2019-06-15T12:14:29.294Z,32.70
2019-06-15T12:17:02.290Z,32.31
2019-06-15T12:19:33.899Z,32.94
2019-06-15T12:22:06.450Z,32.72
2019-06-15T12:24:39.598Z,32.79
2019-06-15T12:27:12.241Z,33.00
2019-06-15T12:29:43.513Z,32.56
2019-06-15T12:32:17.493Z,32.19
2019-06-15T12:34:50.569Z,31.60
2019-06-15T12:37:21.966Z,31.90
2019-06-15T12:39:54.575Z,32.00
2019-06-15T12:42:25.836Z,32.02
2019-06-15T12:44:59.318Z,32.59
2019-06-15T12:47:32.672Z,32.90
2019-06-15T12:50:06.468Z,33.40
2019-06-15T12:52:39.340Z,34.24
2019-06-15T12:55:11.673Z,34.14
2019-06-15T12:57:44.612Z,34.45
2019-06-15T13:00:32.132Z,34.00
2019-06-15T13:03:06.204Z,34.04
2019-06-15T13:06:06.328Z,34.13
2019-06-15T13:08:38.632Z,34.14
2019-06-15T13:11:10.677Z,34.01
2019-06-15T13:13:42.743Z,33.14
2019-06-15T13:16:15.893Z,33.50
2019-06-15T13:18:53.879Z,34.41
2019-06-15T13:21:28.496Z,34.97
2019-06-15T13:24:01.778Z,35.54
2019-06-15T13:26:33.811Z,36.65
2019-06-15T13:29:09.488Z,36.50
2019-06-15T13:31:43.534Z,35.07
2019-06-15T13:34:17.428Z,33.74
2019-06-15T13:36:49.800Z,33.26
2019-06-15T13:39:22.736Z,32.99
2019-06-15T13:41:54.811Z,32.88
2019-06-15T13:44:27.805Z,33.78
2019-06-15T13:46:59.700Z,34.58
2019-06-15T13:49:30.971Z,35.13
2019-06-15T13:52:02.782Z,35.68
2019-06-15T13:54:37.146Z,37.08
2019-06-15T13:57:10.767Z,37.33
2019-06-15T13:59:43.872Z,37.29
2019-06-15T14:02:18.127Z,37.56
2019-06-15T14:04:51.815Z,38.33
2019-06-15T14:07:24.049Z,38.14
2019-06-15T14:09:58.058Z,38.01
2019-06-15T14:12:31.642Z,37.65
2019-06-15T14:15:03.307Z,37.12
2019-06-15T14:17:39.822Z,37.57
2019-06-15T14:20:12.679Z,37.92
2019-06-15T14:22:51.989Z,37.95
2019-06-15T14:25:27.019Z,37.68
2019-06-15T14:28:10.580Z,37.23
2019-06-15T14:30:44.041Z,37.00
2019-06-15T14:33:27.437Z,37.51
2019-06-15T14:36:00.121Z,36.18
2019-06-15T14:38:32.147Z,36.15
2019-06-15T14:41:04.287Z,36.18
2019-06-15T14:43:37.270Z,35.56
2019-06-15T14:46:09.040Z,36.92
2019-06-15T14:48:42.369Z,36.22
2019-06-15T14:51:15.944Z,36.37
2019-06-15T14:53:55.147Z,34.16
2019-06-15T14:56:24.127Z,33.99
2019-06-15T14:58:58.015Z,33.82
2019-06-15T15:01:34.747Z,35.43
2019-06-15T15:04:06.304Z,35.20
2019-06-15T15:06:39.194Z,34.34
2019-06-15T15:09:13.022Z,34.75
2019-06-15T15:11:47.216Z,35.20
2019-06-15T15:14:20.532Z,33.80
2019-06-15T15:16:53.303Z,33.92
2019-06-15T15:19:27.295Z,34.16
2019-06-15T15:22:03.036Z,33.94
2019-06-15T15:24:34.279Z,35.87
2019-06-15T15:27:08.438Z,34.82
2019-06-15T15:29:42.567Z,33.99
2019-06-15T15:32:27.506Z,34.51
2019-06-15T15:34:50.502Z,34.41
2019-06-15T15:37:23.525Z,34.38
2019-06-15T15:39:56.530Z,34.06
2019-06-15T15:42:28.535Z,34.46
2019-06-15T15:45:02.186Z,35.52
2019-06-15T15:47:36.071Z,35.99
2019-06-15T15:50:07.818Z,36.94
2019-06-15T15:52:42.065Z,37.86
2019-06-15T15:55:13.901Z,38.13
2019-06-15T15:58:06.713Z,38.48
2019-06-15T16:00:40.527Z,39.41
2019-06-15T16:03:16.003Z,39.87
2019-06-15T16:06:01.126Z,40.48
2019-06-15T16:08:33.907Z,40.18
2019-06-15T16:11:07.509Z,40.14
2019-06-15T16:13:40.637Z,40.33
2019-06-15T16:16:16.195Z,40.01
2019-06-15T16:18:49.548Z,40.80
2019-06-15T16:21:22.710Z,41.83
2019-06-15T16:23:58.035Z,40.52
2019-06-15T16:26:30.776Z,40.94
2019-06-15T16:29:06.703Z,40.78
2019-06-15T16:31:39.598Z,41.31
2019-06-15T16:34:16.126Z,40.92
2019-06-15T16:36:48.916Z,41.18
2019-06-15T16:39:21.859Z,41.26
2019-06-15T16:41:59.380Z,41.19
2019-06-15T16:44:30.664Z,41.49
2019-06-15T16:47:05.943Z,40.94
2019-06-15T16:49:38.767Z,41.76
2019-06-15T16:52:11.920Z,39.81
2019-06-15T16:54:47.117Z,39.44
2019-06-15T16:57:20.039Z,39.30
2019-06-15T16:59:51.944Z,38.71
2019-06-15T17:02:26.064Z,38.50
2019-06-15T17:04:57.933Z,37.96
2019-06-15T17:07:31.959Z,37.35
2019-06-15T17:10:06.390Z,37.32
2019-06-15T17:12:37.916Z,37.22
2019-06-15T17:15:18.242Z,36.99
2019-06-15T17:18:03.225Z,36.54
2019-06-15T17:20:47.965Z,36.44
2019-06-15T17:23:23.481Z,38.15
2019-06-15T17:26:00.913Z,39.87
2019-06-15T17:28:33.059Z,40.75
2019-06-15T17:31:17.439Z,41.21
2019-06-15T17:33:58.738Z,41.98
2019-06-15T17:36:38.417Z,42.16
2019-06-15T17:39:17.096Z,42.21
2019-06-15T17:41:50.158Z,42.08
2019-06-15T17:44:36.872Z,42.82
2019-06-15T17:47:17.439Z,43.26
2019-06-15T17:49:51.169Z,44.32
2019-06-15T17:52:26.397Z,44.61
2019-06-15T17:54:59.565Z,44.95
2019-06-15T17:57:31.292Z,44.85
2019-06-15T18:00:05.412Z,44.52
2019-06-15T18:02:39.276Z,44.83
2019-06-15T18:05:12.470Z,45.44
2019-06-15T18:07:47.007Z,45.97
2019-06-15T18:10:31.518Z,46.45
2019-06-15T18:13:10.864Z,46.83
2019-06-15T18:15:47.703Z,47.00
2019-06-15T18:18:19.247Z,47.85
2019-06-15T18:20:56.841Z,48.57
2019-06-15T18:23:31.517Z,48.39
2019-06-15T18:26:06.987Z,48.65
2019-06-15T18:28:39.442Z,49.12
2019-06-15T18:31:13.352Z,49.07
2019-06-15T18:33:47.349Z,50.34
2019-06-15T18:36:21.703Z,51.16
2019-06-15T18:38:54.463Z,52.24
2019-06-15T18:41:26.703Z,52.63
2019-06-15T18:43:59.450Z,52.37
2019-06-15T18:46:33.386Z,53.06
2019-06-15T18:49:09.436Z,53.89
2019-06-15T18:51:46.106Z,54.84
2019-06-15T18:54:18.391Z,54.59
2019-06-15T18:56:51.844Z,55.41
2019-06-15T18:59:25.958Z,55.81
2019-06-15T19:01:57.497Z,56.60
2019-06-15T19:04:31.073Z,56.30
2019-06-15T19:07:02.559Z,55.74
2019-06-15T19:09:33.765Z,52.46
2019-06-15T19:12:07.355Z,48.75
2019-06-15T19:14:38.558Z,47.39
2019-06-15T19:17:10.642Z,46.44
2019-06-15T19:19:42.589Z,46.37
2019-06-15T19:22:17.174Z,45.02
2019-06-15T19:24:50.656Z,44.13
2019-06-15T19:27:25.817Z,43.82
2019-06-15T19:29:59.478Z,43.29
2019-06-15T19:32:32.929Z,42.98
2019-06-15T19:35:05.416Z,43.07
2019-06-15T19:37:37.188Z,43.38
2019-06-15T19:40:12.990Z,42.98
2019-06-15T19:42:58.712Z,42.98
2019-06-15T19:45:37.014Z,42.84
2019-06-15T19:48:08.824Z,42.70
2019-06-15T19:50:42.148Z,42.65
2019-06-15T19:53:14.061Z,41.87
2019-06-15T19:55:50.494Z,41.96
2019-06-15T19:58:26.264Z,41.65
2019-06-15T20:00:59.865Z,42.26
2019-06-15T20:03:36.281Z,42.52
2019-06-15T20:06:08.936Z,42.70
2019-06-15T20:08:41.911Z,42.69
2019-06-15T20:11:17.551Z,42.70
2019-06-15T20:13:48.862Z,42.66
2019-06-15T20:16:23.794Z,42.44
2019-06-15T20:18:56.297Z,42.46
2019-06-15T20:21:30.026Z,42.73
2019-06-15T20:24:06.184Z,42.89
2019-06-15T20:26:38.971Z,42.78
2019-06-15T20:29:11.961Z,44.18
2019-06-15T20:31:46.336Z,43.78
2019-06-15T20:34:19.160Z,44.85
2019-06-15T20:36:51.237Z,44.31
2019-06-15T20:39:29.168Z,43.68
2019-06-15T20:42:02.116Z,43.67
2019-06-15T20:44:33.584Z,43.86
2019-06-15T20:47:14.709Z,44.24
2019-06-15T20:49:47.099Z,44.92
2019-06-15T20:52:21.199Z,45.23
2019-06-15T20:54:57.067Z,45.44
2019-06-15T20:57:30.047Z,45.46
2019-06-15T21:00:06.233Z,45.76
2019-06-15T21:02:38.348Z,45.99
2019-06-15T21:05:37.168Z,45.93
2019-06-15T21:08:02.754Z,46.21
2019-06-15T21:10:39.943Z,46.56
2019-06-15T21:13:13.299Z,46.61
2019-06-15T21:15:47.650Z,46.78
2019-06-15T21:18:20.181Z,46.89
2019-06-15T21:21:07.032Z,47.05
2019-06-15T21:23:40.310Z,47.13
2019-06-15T21:26:11.505Z,47.37
2019-06-15T21:28:57.839Z,47.46
2019-06-15T21:31:46.253Z,47.78
2019-06-15T21:34:17.501Z,48.18
2019-06-15T21:36:49.225Z,48.47
2019-06-15T21:39:22.569Z,48.57
2019-06-15T21:41:57.068Z,48.87
2019-06-15T21:44:29.395Z,49.09
2019-06-15T21:47:01.714Z,49.21
2019-06-15T21:49:35.841Z,49.36
2019-06-15T21:52:10.551Z,49.68
2019-06-15T21:54:49.756Z,49.82
2019-06-15T21:57:23.744Z,49.77
2019-06-15T21:59:57.590Z,50.07
2019-06-15T22:02:33.006Z,50.19
2019-06-15T22:05:07.082Z,50.61
2019-06-15T22:07:41.759Z,50.86
2019-06-15T22:10:30.480Z,50.95
2019-06-15T22:13:03.579Z,50.91
2019-06-15T22:15:42.556Z,51.02
2019-06-15T22:18:16.700Z,51.03
2019-06-15T22:20:48.514Z,51.20
2019-06-15T22:23:21.690Z,51.43
2019-06-15T22:25:57.243Z,51.68
2019-06-15T22:28:31.666Z,51.71
2019-06-15T22:31:06.443Z,52.21
2019-06-15T22:33:40.674Z,52.15
2019-06-15T22:36:24.850Z,52.17
2019-06-15T22:38:52.955Z,52.20
2019-06-15T22:41:26.870Z,52.21
2019-06-15T22:43:59.658Z,52.17
2019-06-15T22:46:33.804Z,52.26
2019-06-15T22:49:08.513Z,52.42
2019-06-15T22:51:42.139Z,52.79
2019-06-15T22:54:16.684Z,52.77
2019-06-15T22:56:50.059Z,52.98
2019-06-15T22:59:22.691Z,53.06
2019-06-15T23:01:57.518Z,52.98
2019-06-15T23:04:33.555Z,53.19
2019-06-15T23:07:07.750Z,53.26
2019-06-15T23:09:41.025Z,53.30
2019-06-15T23:12:15.541Z,53.02
2019-06-15T23:14:47.858Z,53.15
2019-06-15T23:17:23.938Z,53.18
2019-06-15T23:19:57.170Z,53.03
2019-06-15T23:22:32.208Z,52.63
2019-06-15T23:25:07.418Z,51.77
2019-06-15T23:27:38.933Z,51.99
2019-06-15T23:30:11.622Z,51.03
2019-06-15T23:32:48.684Z,51.75
2019-06-15T23:35:37.039Z,52.80
2019-06-15T23:38:09.806Z,52.83
2019-06-15T23:40:42.180Z,53.92
2019-06-15T23:43:16.719Z,53.58
2019-06-15T23:45:50.154Z,53.72
2019-06-15T23:48:23.137Z,53.65
2019-06-15T23:50:56.967Z,53.66
2019-06-15T23:53:29.393Z,51.73
2019-06-15T23:56:01.607Z,51.23
2019-06-15T23:58:33.234Z,52.07
